createdAt,value
2022-09-07T00:01:54.638Z,94638.72
2022-09-07T00:04:21.836Z,94635.59
2022-09-07T00:06:49.733Z,94638.31
2022-09-07T00:09:16.466Z,94636.69
2022-09-07T00:11:43.187Z,94634.75
2022-09-07T00:14:09.858Z,94629.38
2022-09-07T00:16:36.616Z,94630.91
2022-09-07T00:19:04.821Z,94635.16
2022-09-07T00:21:31.943Z,94632.44
2022-09-07T00:23:58.680Z,94637.06
2022-09-07T00:26:30.718Z,94631.25
2022-09-07T00:28:59.857Z,94631.34
2022-09-07T00:31:27.691Z,94631.75
2022-09-07T00:33:57.270Z,94627.50
2022-09-07T00:36:23.997Z,94627.84
2022-09-07T00:38:50.858Z,94630.56
2022-09-07T00:41:18.604Z,94632.09
2022-09-07T00:43:48.595Z,94635.50
2022-09-07T00:46:32.183Z,94640.34
2022-09-07T00:49:05.083Z,94636.03
2022-09-07T00:51:36.739Z,94639.00
2022-09-07T00:54:08.871Z,94625.25
2022-09-07T00:56:40.994Z,94629.66
2022-09-07T00:59:09.444Z,94634.75
2022-09-07T01:01:37.523Z,94630.19
2022-09-07T01:04:05.138Z,94625.91
2022-09-07T01:06:34.542Z,94625.88
2022-09-07T01:09:10.229Z,94625.50
2022-09-07T01:11:37.649Z,94614.72
2022-09-07T01:14:07.676Z,94617.78
2022-09-07T01:17:15.682Z,94613.00
2022-09-07T01:20:13.437Z,94619.75
2022-09-07T01:22:54.506Z,94617.56
2022-09-07T01:25:34.438Z,94616.84
2022-09-07T01:28:11.606Z,94611.19
2022-09-07T01:30:40.857Z,94616.56
2022-09-07T01:33:37.406Z,94610.28
2022-09-07T01:36:25.734Z,94607.13
2022-09-07T01:38:59.059Z,94602.97
2022-09-07T01:41:39.195Z,94613.63
2022-09-07T01:44:36.140Z,94620.44
2022-09-07T01:47:08.401Z,94615.22
2022-09-07T01:50:19.775Z,94621.50
2022-09-07T01:52:55.087Z,94620.06
2022-09-07T01:55:36.723Z,94611.16
2022-09-07T01:58:21.976Z,94610.00
2022-09-07T02:00:58.032Z,94607.31
2022-09-07T02:03:51.219Z,94605.63
2022-09-07T02:06:34.812Z,94604.53
2022-09-07T02:09:27.327Z,94608.03
2022-09-07T02:11:54.786Z,94603.06
2022-09-07T02:14:43.926Z,94601.03
2022-09-07T02:17:26.887Z,94609.22
2022-09-07T02:20:00.176Z,94613.88
2022-09-07T02:22:32.966Z,94605.03
2022-09-07T02:25:03.345Z,94601.91
2022-09-07T02:27:39.586Z,94599.19
2022-09-07T02:30:06.855Z,94607.31
2022-09-07T02:32:33.544Z,94608.47
2022-09-07T02:35:00.245Z,94601.13
2022-09-07T02:37:29.031Z,94600.59
2022-09-07T02:39:56.002Z,94595.69
2022-09-07T02:42:22.821Z,94595.34
2022-09-07T02:44:49.525Z,94595.72
2022-09-07T02:47:24.973Z,94595.72
2022-09-07T02:50:13.324Z,94593.38
2022-09-07T02:53:08.526Z,94593.78
2022-09-07T02:56:03.112Z,94595.91
2022-09-07T02:58:35.770Z,94603.63
2022-09-07T03:01:07.506Z,94602.25
2022-09-07T03:04:06.543Z,94606.09
2022-09-07T03:06:39.305Z,94604.59
2022-09-07T03:09:11.460Z,94609.03
2022-09-07T03:11:38.532Z,94608.97
2022-09-07T03:14:17.276Z,94605.41
2022-09-07T03:16:44.700Z,94602.66
2022-09-07T03:19:11.409Z,94609.03
2022-09-07T03:21:38.093Z,94605.88
2022-09-07T03:24:05.398Z,94606.00
2022-09-07T03:26:32.177Z,94606.19
2022-09-07T03:28:59.498Z,94608.63
2022-09-07T03:31:26.550Z,94604.97
2022-09-07T03:33:54.434Z,94610.09
2022-09-07T03:36:21.284Z,94614.59
2022-09-07T03:38:47.909Z,94618.38
2022-09-07T03:41:14.691Z,94618.53
2022-09-07T03:43:41.375Z,94626.84
2022-09-07T03:46:10.555Z,94628.03
2022-09-07T03:48:39.134Z,94623.97
2022-09-07T03:51:07.802Z,94622.78
2022-09-07T03:53:37.244Z,94619.41
2022-09-07T03:56:07.179Z,94623.16
2022-09-07T03:58:35.138Z,94620.09
2022-09-07T04:01:16.411Z,94619.63
2022-09-07T04:03:44.301Z,94624.34
2022-09-07T04:06:11.712Z,94621.16
2022-09-07T04:08:40.257Z,94617.91
2022-09-07T04:11:08.511Z,94625.00
2022-09-07T04:13:36.747Z,94626.56
2022-09-07T04:16:11.728Z,94635.59
2022-09-07T04:18:38.365Z,94634.69
2022-09-07T04:21:05.122Z,94638.22
2022-09-07T04:23:32.396Z,94642.28
2022-09-07T04:25:59.224Z,94637.22
2022-09-07T04:28:26.188Z,94633.56
2022-09-07T04:30:52.992Z,94640.63
2022-09-07T04:33:19.984Z,94636.03
2022-09-07T04:35:46.610Z,94632.91
2022-09-07T04:38:14.947Z,94636.69
2022-09-07T04:40:42.288Z,94629.31
2022-09-07T04:43:09.714Z,94638.88
2022-09-07T04:45:37.722Z,94631.22
2022-09-07T04:48:05.258Z,94641.97
2022-09-07T04:50:31.964Z,94643.91
2022-09-07T04:52:58.619Z,94651.59
2022-09-07T04:55:25.247Z,94650.94
2022-09-07T04:57:51.930Z,94649.47
2022-09-07T05:00:18.834Z,94645.25
2022-09-07T05:02:45.565Z,94652.31
2022-09-07T05:05:12.313Z,94651.66
2022-09-07T05:07:38.966Z,94650.69
2022-09-07T05:10:05.820Z,94649.97
2022-09-07T05:12:32.851Z,94649.91
2022-09-07T05:14:59.677Z,94654.16
2022-09-07T05:17:26.411Z,94656.03
2022-09-07T05:19:54.893Z,94659.34
2022-09-07T05:22:22.398Z,94664.38
2022-09-07T05:24:49.040Z,94657.38
2022-09-07T05:27:15.715Z,94659.72
2022-09-07T05:32:29.834Z,94648.38
2022-09-07T05:34:56.514Z,94656.56
2022-09-07T05:37:23.164Z,94658.50
2022-09-07T05:39:51.941Z,94651.59
2022-09-07T05:42:18.612Z,94656.31
2022-09-07T05:44:45.799Z,94648.84
2022-09-07T05:47:13.234Z,94648.69
2022-09-07T05:49:40.207Z,94658.03
2022-09-07T05:52:06.959Z,94651.06
2022-09-07T05:54:33.693Z,94646.72
2022-09-07T05:57:00.501Z,94638.63
2022-09-07T05:59:27.184Z,94646.00
2022-09-07T06:01:53.881Z,94648.69
2022-09-07T06:04:20.680Z,94649.41
2022-09-07T06:06:59.255Z,94653.34
2022-09-07T06:09:34.422Z,94656.56
2022-09-07T06:12:04.645Z,94655.88
2022-09-07T06:14:32.196Z,94658.91
2022-09-07T06:16:58.993Z,94659.44
2022-09-07T06:19:25.691Z,94659.50
2022-09-07T06:21:52.383Z,94653.38
2022-09-07T06:24:19.103Z,94651.16
2022-09-07T06:26:45.768Z,94659.56
2022-09-07T06:29:12.555Z,94658.78
2022-09-07T06:34:26.424Z,94662.69
2022-09-07T06:36:53.122Z,94665.75
2022-09-07T06:39:19.759Z,94661.59
2022-09-07T06:42:01.820Z,94658.09
2022-09-07T06:44:28.448Z,94663.91
2022-09-07T06:49:28.747Z,94665.81
2022-09-07T06:51:55.582Z,94673.59
2022-09-07T06:57:14.615Z,94673.94
2022-09-07T06:59:41.290Z,94678.25
2022-09-07T07:02:11.628Z,94683.66
2022-09-07T07:04:41.146Z,94676.72
2022-09-07T07:07:12.685Z,94683.59
2022-09-07T07:09:40.220Z,94686.00
2022-09-07T07:12:07.172Z,94681.31
2022-09-07T07:14:37.244Z,94686.00
2022-09-07T07:17:06.726Z,94673.91
2022-09-07T07:19:33.346Z,94676.16
2022-09-07T07:22:36.013Z,94676.50
2022-09-07T07:24:48.608Z,94687.50
2022-09-07T07:27:15.467Z,94682.09
2022-09-07T07:29:42.129Z,94679.31
2022-09-07T07:32:08.859Z,94680.88
2022-09-07T07:34:35.578Z,94685.91
2022-09-07T07:37:02.354Z,94678.34
2022-09-07T07:42:15.703Z,94674.13
2022-09-07T07:44:42.314Z,94680.28
2022-09-07T07:47:08.922Z,94677.84
2022-09-07T07:49:35.592Z,94681.72
2022-09-07T07:54:48.987Z,94676.00
2022-09-07T07:57:18.890Z,94684.50
2022-09-07T07:59:45.494Z,94677.59
2022-09-07T08:02:15.807Z,94683.78
2022-09-07T08:04:42.671Z,94670.97
2022-09-07T08:07:11.973Z,94679.13
2022-09-07T08:09:43.624Z,94678.97
2022-09-07T08:12:16.973Z,94673.06
2022-09-07T08:14:43.800Z,94676.22
2022-09-07T08:17:13.012Z,94677.81
2022-09-07T08:19:39.966Z,94679.34
2022-09-07T08:22:07.840Z,94674.94
2022-09-07T08:24:34.697Z,94678.50
2022-09-07T08:27:01.972Z,94672.91
2022-09-07T08:29:32.579Z,94677.34
2022-09-07T08:32:01.044Z,94669.69
2022-09-07T08:34:27.745Z,94671.09
2022-09-07T08:36:54.871Z,94668.69
2022-09-07T08:39:21.529Z,94662.53
2022-09-07T08:42:14.855Z,94664.13
2022-09-07T08:44:48.937Z,94652.69
2022-09-07T08:47:28.578Z,94652.22
2022-09-07T08:49:58.091Z,94654.34
2022-09-07T08:52:57.085Z,94660.09
2022-09-07T08:55:34.834Z,94652.03
2022-09-07T08:58:48.222Z,94654.22
2022-09-07T09:01:36.555Z,94633.78
2022-09-07T09:04:18.522Z,94630.94
2022-09-07T09:06:53.805Z,94636.25
2022-09-07T09:09:42.287Z,94634.59
2022-09-07T09:12:11.983Z,94634.00
2022-09-07T09:14:53.881Z,94625.16
2022-09-07T09:17:47.060Z,94621.25
2022-09-07T09:20:37.205Z,94623.53
2022-09-07T09:23:15.180Z,94617.06
2022-09-07T09:25:56.772Z,94627.53
2022-09-07T09:28:24.734Z,94615.81
2022-09-07T09:30:53.237Z,94620.28
2022-09-07T09:33:20.363Z,94618.94
2022-09-07T09:35:52.788Z,94619.59
2022-09-07T09:38:34.567Z,94609.03
2022-09-07T09:41:15.284Z,94605.19
2022-09-07T09:43:46.763Z,94612.91
2022-09-07T09:46:35.277Z,94608.22
2022-09-07T09:49:28.171Z,94602.75
2022-09-07T09:54:48.651Z,94601.84
2022-09-07T09:57:16.902Z,94598.31
2022-09-07T10:00:02.758Z,94595.63
2022-09-07T10:05:27.697Z,94603.03
2022-09-07T10:07:57.800Z,94590.41
2022-09-07T10:10:26.594Z,94587.13
2022-09-07T10:12:55.142Z,94588.94
2022-09-07T10:15:29.198Z,94576.22
2022-09-07T10:17:56.967Z,94576.06
2022-09-07T10:20:35.568Z,94562.06
2022-09-07T10:23:03.238Z,94575.59
2022-09-07T10:25:41.877Z,94569.81
2022-09-07T10:28:12.633Z,94566.78
2022-09-07T10:30:56.221Z,94561.38
2022-09-07T10:34:25.728Z,94566.84
2022-09-07T10:36:57.045Z,94553.09
2022-09-07T10:39:28.011Z,94559.31
2022-09-07T10:42:23.600Z,94551.31
2022-09-07T10:44:53.142Z,94560.09
2022-09-07T10:47:25.915Z,94545.34
2022-09-07T10:50:22.778Z,94543.38
2022-09-07T10:52:55.839Z,94538.84
2022-09-07T10:55:39.257Z,94537.22
2022-09-07T10:59:01.593Z,94544.34
2022-09-07T11:01:26.951Z,94538.53
2022-09-07T11:04:31.074Z,94532.97
2022-09-07T11:07:15.905Z,94533.03
2022-09-07T11:10:34.972Z,94534.97
2022-09-07T11:13:05.814Z,94532.78
2022-09-07T11:15:50.743Z,94523.50
2022-09-07T11:18:40.200Z,94520.78
2022-09-07T11:21:14.658Z,94515.03
2022-09-07T11:23:45.863Z,94506.50
2022-09-07T11:26:36.127Z,94507.09
2022-09-07T11:29:32.145Z,94513.41
2022-09-07T11:32:06.769Z,94502.69
2022-09-07T11:34:45.143Z,94501.16
2022-09-07T11:37:20.460Z,94503.50
2022-09-07T11:40:00.666Z,94497.91
2022-09-07T11:42:50.349Z,94496.69
2022-09-07T11:45:41.545Z,94500.97
2022-09-07T11:48:21.476Z,94503.47
2022-09-07T11:50:53.232Z,94496.28
2022-09-07T11:53:27.720Z,94501.81
2022-09-07T11:55:59.255Z,94485.44
2022-09-07T11:58:28.523Z,94499.28
2022-09-07T12:01:13.583Z,94488.34
2022-09-07T12:04:13.241Z,94481.03
2022-09-07T12:07:06.373Z,94472.94
2022-09-07T12:09:32.983Z,94470.84
2022-09-07T12:12:18.431Z,94463.16
2022-09-07T12:14:47.693Z,94466.78
2022-09-07T12:17:29.639Z,94475.31
2022-09-07T12:20:23.669Z,94464.94
2022-09-07T12:23:15.175Z,94466.72
2022-09-07T12:25:52.354Z,94459.28
2022-09-07T12:28:24.650Z,94456.63
2022-09-07T12:31:04.456Z,94459.06
2022-09-07T12:33:39.488Z,94462.25
2022-09-07T12:36:27.594Z,94457.03
2022-09-07T12:39:25.737Z,94438.66
2022-09-07T12:45:28.915Z,94435.13
2022-09-07T12:48:04.596Z,94447.28
2022-09-07T12:50:56.476Z,94442.72
2022-09-07T12:53:36.793Z,94439.59
2022-09-07T12:56:15.826Z,94428.81
2022-09-07T12:58:51.075Z,94424.81
2022-09-07T13:01:44.180Z,94422.66
2022-09-07T13:04:32.150Z,94419.75
2022-09-07T13:07:17.077Z,94411.41
2022-09-07T13:09:57.999Z,94410.03
2022-09-07T13:12:54.198Z,94419.25
2022-09-07T13:15:51.160Z,94409.38
2022-09-07T13:18:29.786Z,94414.06
2022-09-07T13:21:08.287Z,94418.97
2022-09-07T13:23:37.827Z,94420.38
2022-09-07T13:26:09.123Z,94409.16
2022-09-07T13:28:38.476Z,94417.00
2022-09-07T13:31:13.995Z,94417.31
2022-09-07T13:33:50.421Z,94419.63
2022-09-07T13:36:25.827Z,94410.31
2022-09-07T13:38:54.981Z,94408.22
2022-09-07T13:41:32.133Z,94412.28
2022-09-07T13:44:02.296Z,94410.91
2022-09-07T13:46:35.048Z,94403.78
2022-09-07T13:49:13.287Z,94404.06
2022-09-07T13:51:55.922Z,94409.81
2022-09-07T13:54:40.447Z,94398.72
2022-09-07T13:57:27.601Z,94408.28
2022-09-07T13:59:55.922Z,94399.97
2022-09-07T14:02:35.967Z,94395.25
2022-09-07T14:05:06.591Z,94396.03
2022-09-07T14:07:33.175Z,94396.63
2022-09-07T14:10:19.716Z,94390.53
2022-09-07T14:12:50.589Z,94394.47
2022-09-07T14:15:29.293Z,94397.31
2022-09-07T14:18:34.613Z,94397.75
2022-09-07T14:21:01.614Z,94402.81
2022-09-07T14:23:32.638Z,94400.06
2022-09-07T14:26:16.636Z,94400.28
2022-09-07T14:28:46.024Z,94390.75
2022-09-07T14:31:15.166Z,94402.28
2022-09-07T14:33:52.775Z,94407.78
2022-09-07T14:36:42.432Z,94395.25
2022-09-07T14:39:11.876Z,94393.34
2022-09-07T14:41:40.667Z,94383.53
2022-09-07T14:44:26.199Z,94387.00
2022-09-07T14:46:56.822Z,94389.66
2022-09-07T14:49:24.736Z,94380.69
2022-09-07T14:51:53.629Z,94377.59
2022-09-07T14:54:27.789Z,94378.59
2022-09-07T14:57:02.540Z,94383.41
2022-09-07T14:59:42.687Z,94382.47
2022-09-07T15:02:18.558Z,94378.38
2022-09-07T15:05:20.574Z,94385.50
2022-09-07T15:08:05.486Z,94383.31
2022-09-07T15:10:36.887Z,94390.53
2022-09-07T15:13:06.245Z,94384.50
2022-09-07T15:15:39.600Z,94387.66
2022-09-07T15:18:44.703Z,94389.69
2022-09-07T15:21:11.448Z,94388.53
2022-09-07T15:23:38.079Z,94385.72
2022-09-07T15:26:05.350Z,94388.13
2022-09-07T15:34:20.060Z,94385.25
2022-09-07T15:36:52.223Z,94393.81
2022-09-07T15:39:25.783Z,94397.28
2022-09-07T15:41:52.979Z,94398.25
2022-09-07T15:44:25.012Z,94396.91
2022-09-07T15:49:49.288Z,94396.66
2022-09-07T15:52:19.738Z,94398.03
2022-09-07T15:54:46.774Z,94395.06
2022-09-07T16:00:00.088Z,94399.22
2022-09-07T16:05:13.361Z,94403.69
2022-09-07T16:10:31.060Z,94403.19
2022-09-07T16:13:02.916Z,94403.09
2022-09-07T16:15:45.209Z,94404.59
2022-09-07T16:18:16.601Z,94406.31
2022-09-07T16:20:44.007Z,94394.53
2022-09-07T16:23:13.675Z,94391.56
2022-09-07T16:25:42.387Z,94397.63
2022-09-07T16:28:09.817Z,94396.69
2022-09-07T16:30:39.692Z,94392.91
2022-09-07T16:33:06.487Z,94398.28
2022-09-07T16:35:33.285Z,94387.22
2022-09-07T16:40:46.714Z,94389.56
2022-09-07T16:43:13.322Z,94389.16
2022-09-07T16:48:26.650Z,94387.78
2022-09-07T16:51:01.094Z,94380.88
2022-09-07T16:53:30.942Z,94393.06
2022-09-07T16:56:05.229Z,94388.47
2022-09-07T16:58:37.540Z,94399.16
2022-09-07T17:01:05.874Z,94393.31
2022-09-07T17:03:32.933Z,94401.56
2022-09-07T17:06:01.492Z,94410.38
2022-09-07T17:08:28.372Z,94412.28
2022-09-07T17:50:29.512Z,94444.28
2022-09-07T17:52:56.183Z,94449.28
2022-09-07T17:55:24.470Z,94447.25
2022-09-07T17:57:51.137Z,94450.44
2022-09-07T18:00:17.766Z,94457.09
2022-09-07T18:02:44.515Z,94451.69
2022-09-07T18:05:11.290Z,94457.28
2022-09-07T18:07:37.985Z,94459.59
2022-09-07T18:10:04.979Z,94462.34
2022-09-07T18:12:32.718Z,94461.31
2022-09-07T18:14:59.704Z,94462.09
2022-09-07T18:17:27.570Z,94469.78
2022-09-07T18:19:54.748Z,94471.31
2022-09-07T18:22:21.514Z,94465.63
2022-09-07T18:24:48.337Z,94476.13
2022-09-07T18:27:14.986Z,94472.81
2022-09-07T18:29:43.428Z,94475.44
2022-09-07T18:32:10.536Z,94473.81
2022-09-07T18:34:41.173Z,94480.47
2022-09-07T18:37:08.309Z,94477.75
2022-09-07T18:39:35.661Z,94483.22
2022-09-07T18:42:02.664Z,94480.94
2022-09-07T18:47:27.654Z,94481.38
2022-09-07T18:49:55.235Z,94471.66
2022-09-07T18:55:10.562Z,94474.44
2022-09-07T18:57:37.718Z,94470.22
2022-09-07T19:00:07.282Z,94473.03
2022-09-07T19:02:34.786Z,94476.88
2022-09-07T19:07:48.500Z,94481.19
2022-09-07T19:10:16.929Z,94476.16
2022-09-07T19:12:45.857Z,94471.53
2022-09-07T19:15:13.435Z,94476.16
2022-09-07T19:17:46.234Z,94475.38
2022-09-07T19:20:12.977Z,94476.16
2022-09-07T19:22:39.691Z,94469.78
2022-09-07T19:25:06.653Z,94473.31
2022-09-07T19:27:33.470Z,94475.16
2022-09-07T19:30:00.430Z,94472.44
2022-09-07T19:32:27.487Z,94477.03
2022-09-07T19:34:55.422Z,94475.81
2022-09-07T19:37:25.780Z,94486.09
2022-09-07T19:39:56.487Z,94491.09
2022-09-07T19:42:23.877Z,94480.88
2022-09-07T19:44:50.914Z,94487.44
2022-09-07T19:47:17.910Z,94487.69
2022-09-07T19:49:44.636Z,94490.63
2022-09-07T19:52:11.776Z,94487.53
2022-09-07T19:54:38.530Z,94487.22
2022-09-07T19:57:05.784Z,94487.53
2022-09-07T19:59:32.509Z,94488.66
2022-09-07T20:02:00.626Z,94488.59
2022-09-07T20:04:28.307Z,94488.91
2022-09-07T20:06:55.024Z,94481.91
2022-09-07T20:09:21.705Z,94482.25
2022-09-07T20:11:48.659Z,94486.19
2022-09-07T20:14:16.616Z,94472.94
2022-09-07T20:16:43.760Z,94478.75
2022-09-07T20:19:13.697Z,94483.16
2022-09-07T20:21:40.494Z,94481.06
2022-09-07T20:24:07.144Z,94488.09
2022-09-07T20:26:33.867Z,94491.16
2022-09-07T20:31:47.567Z,94486.56
2022-09-07T20:34:14.426Z,94491.31
2022-09-07T20:36:41.423Z,94490.91
2022-09-07T20:39:08.039Z,94487.31
2022-09-07T20:41:34.894Z,94495.81
2022-09-07T20:44:03.284Z,94497.34
2022-09-07T20:46:30.876Z,94493.53
2022-09-07T20:48:58.460Z,94505.47
2022-09-07T20:51:25.821Z,94501.34
2022-09-07T20:53:53.040Z,94501.69
2022-09-07T20:56:28.027Z,94509.31
2022-09-07T20:59:00.391Z,94516.13
2022-09-07T21:01:28.270Z,94512.41
2022-09-07T21:03:57.557Z,94521.28
2022-09-07T21:06:25.536Z,94517.66
2022-09-07T21:08:52.779Z,94523.22
2022-09-07T21:11:38.519Z,94527.94
2022-09-07T21:14:08.423Z,94525.41
2022-09-07T21:16:36.018Z,94520.84
2022-09-07T21:21:56.252Z,94530.97
2022-09-07T21:24:23.915Z,94531.44
2022-09-07T21:26:51.284Z,94527.03
2022-09-07T21:29:21.910Z,94521.16
2022-09-07T21:31:49.047Z,94519.34
2022-09-07T21:34:16.702Z,94524.78
2022-09-07T21:36:43.684Z,94518.88
2022-09-07T21:42:06.442Z,94523.19
2022-09-07T21:44:33.071Z,94520.91
2022-09-07T21:46:59.834Z,94517.75
2022-09-07T21:49:26.521Z,94517.22
2022-09-07T21:51:53.134Z,94517.69
2022-09-07T21:54:19.852Z,94518.97
2022-09-07T21:56:47.179Z,94519.28
2022-09-07T21:59:13.798Z,94519.69
2022-09-07T22:01:41.032Z,94518.84
2022-09-07T22:04:07.775Z,94514.09
2022-09-07T22:06:35.045Z,94520.09
2022-09-07T22:09:02.431Z,94521.50
2022-09-07T22:11:32.824Z,94515.19
2022-09-07T22:14:01.986Z,94521.09
2022-09-07T22:16:29.565Z,94523.03
2022-09-07T22:18:56.369Z,94522.59
2022-09-07T22:21:25.640Z,94511.59
2022-09-07T22:23:55.938Z,94510.75
2022-09-07T22:26:25.807Z,94509.56
2022-09-07T22:28:52.843Z,94504.09
2022-09-07T22:31:22.534Z,94500.53
2022-09-07T22:33:50.850Z,94505.59
2022-09-07T22:36:23.124Z,94495.97
2022-09-07T22:38:53.293Z,94499.75
2022-09-07T22:41:22.978Z,94500.88
2022-09-07T22:43:51.085Z,94508.44
2022-09-07T22:46:22.326Z,94508.28
2022-09-07T22:48:49.582Z,94495.81
2022-09-07T22:51:17.067Z,94500.78
2022-09-07T22:53:44.574Z,94499.53
2022-09-07T22:56:18.639Z,94508.03
2022-09-07T22:58:54.292Z,94509.28
2022-09-07T23:01:22.055Z,94507.69
2022-09-07T23:03:49.539Z,94503.38
2022-09-07T23:06:22.735Z,94496.78
2022-09-07T23:08:51.682Z,94496.00
2022-09-07T23:11:19.607Z,94497.66
2022-09-07T23:13:49.599Z,94502.59
2022-09-07T23:16:16.230Z,94505.31
2022-09-07T23:18:45.166Z,94511.13
2022-09-07T23:21:12.215Z,94504.97
2022-09-07T23:23:38.956Z,94506.09
2022-09-07T23:28:58.915Z,94506.97
2022-09-07T23:31:26.619Z,94503.09
2022-09-07T23:33:53.470Z,94497.66
2022-09-07T23:36:20.508Z,94500.75
2022-09-07T23:38:47.409Z,94488.34
2022-09-07T23:41:14.825Z,94487.94
2022-09-07T23:43:41.827Z,94493.91
2022-09-07T23:46:09.776Z,94494.66
2022-09-07T23:48:36.573Z,94497.47
2022-09-07T23:53:53.743Z,94494.81
2022-09-07T23:56:20.873Z,94494.06
2022-09-07T23:58:47.903Z,94487.84
